createdAt,value
2019-03-10T00:04:31.540Z,86.962891
2019-03-10T00:09:54.280Z,85.064697
2019-03-10T00:15:16.955Z,85.827637
2019-03-10T00:20:39.934Z,85.931396
2019-03-10T00:26:03.160Z,85.516357
2019-03-10T00:31:25.963Z,85.620117
2019-03-10T00:36:48.623Z,86.523438
2019-03-10T00:42:11.218Z,85.552979
2019-03-10T00:47:34.605Z,86.383057
2019-03-10T00:52:57.715Z,85.620117
2019-03-10T00:58:22.808Z,86.895752
2019-03-10T01:03:45.722Z,85.723877
2019-03-10T01:09:08.421Z,86.029053
2019-03-10T01:14:31.112Z,86.755371
2019-03-10T01:19:53.752Z,85.931396
2019-03-10T01:25:17.560Z,85.931396
2019-03-10T01:30:40.527Z,85.827637
2019-03-10T01:36:03.634Z,85.931396
2019-03-10T01:41:27.255Z,86.547852
2019-03-10T01:46:50.897Z,86.999512
2019-03-10T01:52:13.848Z,87.969971
2019-03-10T01:57:37.122Z,88.17749
2019-03-10T02:03:00.704Z,88.17749
2019-03-10T02:08:23.427Z,88.17749
2019-03-10T02:13:46.132Z,87.762451
2019-03-10T02:19:08.807Z,87.249756
2019-03-10T02:24:31.457Z,86.999512
2019-03-10T02:29:54.491Z,86.895752
2019-03-10T02:35:17.435Z,87.561035
2019-03-10T02:40:43.153Z,86.895752
2019-03-10T02:46:02.786Z,86.383057
2019-03-10T02:51:25.704Z,87.042236
2019-03-10T02:56:48.429Z,87.866211
2019-03-10T03:02:11.089Z,88.07373
2019-03-10T03:07:33.761Z,87.145996
2019-03-10T03:12:56.509Z,86.108398
2019-03-10T03:18:19.280Z,86.938477
2019-03-10T03:23:41.993Z,86.212158
2019-03-10T03:29:04.619Z,86.730957
2019-03-10T03:34:28.302Z,87.145996
2019-03-10T03:39:50.975Z,86.523438
2019-03-10T03:45:13.836Z,87.353516
2019-03-10T03:50:36.445Z,87.249756
2019-03-10T03:56:00.074Z,87.561035
2019-03-10T04:01:23.070Z,88.116455
2019-03-10T04:06:45.761Z,88.012695
2019-03-10T04:12:08.450Z,88.220215
2019-03-10T04:17:31.110Z,88.94043
2019-03-10T04:22:54.797Z,89.501953
2019-03-10T04:28:17.669Z,88.842773
2019-03-10T04:33:41.184Z,89.044189
2019-03-10T04:39:04.381Z,89.355469
2019-03-10T04:44:27.182Z,88.531494
2019-03-10T04:49:49.981Z,90.802002
2019-03-10T04:55:12.840Z,90.393066
2019-03-10T05:00:35.508Z,90.246582
2019-03-10T05:05:58.180Z,91.070557
2019-03-10T05:11:20.872Z,90.454102
2019-03-10T05:16:43.522Z,91.174316
2019-03-10T05:22:06.386Z,91.485596
2019-03-10T05:27:29.143Z,91.693115
2019-03-10T05:32:52.668Z,92.211914
2019-03-10T05:38:16.551Z,93.243408
2019-03-10T05:43:39.546Z,93.804932
2019-03-10T05:49:02.471Z,95.355225
2019-03-10T05:54:25.146Z,95.08667
2019-03-10T05:59:49.225Z,94.055176
2019-03-10T06:05:21.014Z,94.720459
2019-03-10T06:10:44.260Z,96.520996
2019-03-10T06:16:07.188Z,98.388672
2019-03-10T06:21:31.099Z,99.32251
2019-03-10T06:26:53.735Z,99.835205
2019-03-10T06:32:16.413Z,99.993896
2019-03-10T06:37:44.334Z,99.993896
2019-03-10T06:43:07.474Z,99.993896
2019-03-10T06:48:31.048Z,99.993896
2019-03-10T06:53:54.954Z,99.993896
2019-03-10T06:59:17.891Z,99.993896
2019-03-10T07:04:41.405Z,99.993896
2019-03-10T07:10:04.950Z,99.993896
2019-03-10T07:15:27.854Z,99.993896
2019-03-10T07:20:50.506Z,99.993896
2019-03-10T07:26:14.473Z,99.993896
2019-03-10T07:31:37.489Z,99.993896
2019-03-10T07:37:03.548Z,99.993896
2019-03-10T07:42:26.198Z,99.993896
2019-03-10T07:47:48.960Z,99.993896
2019-03-10T07:53:11.659Z,99.993896
2019-03-10T07:58:34.314Z,99.993896
2019-03-10T08:03:57.058Z,99.993896
2019-03-10T08:09:20.266Z,99.993896
2019-03-10T08:14:43.480Z,99.993896
2019-03-10T08:20:07.180Z,99.993896
2019-03-10T08:25:29.920Z,99.993896
2019-03-10T08:30:52.586Z,99.993896
2019-03-10T08:36:15.404Z,99.993896
2019-03-10T08:41:38.722Z,99.993896
2019-03-10T08:47:01.652Z,99.993896
2019-03-10T08:52:24.419Z,99.993896
2019-03-10T08:57:47.055Z,99.993896
2019-03-10T09:03:09.845Z,99.993896
2019-03-10T09:08:32.441Z,99.993896
2019-03-10T09:13:55.240Z,99.993896
2019-03-10T09:19:19.176Z,99.993896
2019-03-10T09:24:41.904Z,99.993896
2019-03-10T09:30:04.999Z,99.993896
2019-03-10T09:35:27.865Z,99.993896
2019-03-10T09:40:51.307Z,99.993896
2019-03-10T09:46:13.209Z,99.743652
2019-03-10T09:51:35.986Z,99.432373
2019-03-10T09:56:58.856Z,99.816895
2019-03-10T10:02:21.843Z,99.194336
2019-03-10T10:07:45.810Z,99.44458
2019-03-10T10:13:08.472Z,99.34082
2019-03-10T10:18:32.436Z,99.755859
2019-03-10T10:23:55.345Z,99.54834
2019-03-10T10:29:18.359Z,99.505615
2019-03-10T10:34:41.045Z,99.963379
2019-03-10T10:40:04.191Z,99.993896
2019-03-10T10:45:27.007Z,99.993896
2019-03-10T10:50:49.839Z,99.993896
2019-03-10T10:56:12.596Z,99.993896
2019-03-10T11:01:35.313Z,99.993896
2019-03-10T11:06:58.101Z,99.993896
2019-03-10T11:12:21.687Z,99.993896
2019-03-10T11:17:44.795Z,99.993896
2019-03-10T11:23:08.562Z,99.993896
2019-03-10T11:28:31.215Z,99.993896
2019-03-10T11:33:54.493Z,99.993896
2019-03-10T11:39:17.514Z,99.993896
2019-03-10T11:44:39.306Z,99.993896
2019-03-10T11:50:01.947Z,99.993896
2019-03-10T11:55:24.955Z,99.993896
2019-03-10T12:00:47.507Z,99.993896
2019-03-10T12:06:10.175Z,99.993896
2019-03-10T12:11:32.834Z,99.993896
2019-03-10T12:16:55.489Z,99.993896
2019-03-10T12:22:18.251Z,99.993896
2019-03-10T12:27:42.039Z,99.993896
2019-03-10T12:33:04.818Z,99.993896
2019-03-10T12:38:27.525Z,99.993896
2019-03-10T12:43:52.075Z,99.993896
2019-03-10T12:49:15.200Z,99.993896
2019-03-10T12:54:37.958Z,99.993896
2019-03-10T13:00:01.299Z,99.993896
2019-03-10T13:05:24.070Z,99.993896
2019-03-10T13:10:46.787Z,99.993896
2019-03-10T13:16:12.216Z,99.993896
2019-03-10T13:21:32.536Z,99.993896
2019-03-10T13:26:55.358Z,99.993896
2019-03-10T13:32:20.016Z,99.993896
2019-03-10T13:37:42.828Z,99.993896
2019-03-10T13:43:05.535Z,99.993896
2019-03-10T13:48:28.256Z,99.993896
2019-03-10T13:53:50.915Z,99.993896
2019-03-10T13:59:13.738Z,99.993896
2019-03-10T14:04:37.962Z,99.993896
2019-03-10T14:10:00.975Z,99.993896
2019-03-10T14:15:26.664Z,99.993896
2019-03-10T14:20:49.767Z,99.993896
2019-03-10T14:26:12.668Z,99.993896
2019-03-10T14:31:35.362Z,99.993896
2019-03-10T14:36:58.062Z,99.993896
2019-03-10T14:42:21.600Z,99.993896
2019-03-10T14:47:44.358Z,98.31543
2019-03-10T14:53:08.013Z,97.229004
2019-03-10T14:58:30.815Z,96.09375
2019-03-10T15:03:54.642Z,98.303223
2019-03-10T15:09:17.435Z,99.993896
2019-03-10T15:14:40.268Z,99.993896
2019-03-10T15:20:04.822Z,99.993896
2019-03-10T15:25:27.812Z,99.993896
2019-03-10T15:30:50.688Z,99.993896
2019-03-10T15:36:23.840Z,99.993896
2019-03-10T15:41:55.867Z,99.993896
2019-03-10T15:47:18.785Z,99.993896
2019-03-10T15:52:50.343Z,99.993896
2019-03-10T15:58:13.127Z,99.993896
2019-03-10T16:03:45.368Z,99.993896
2019-03-10T16:09:17.930Z,99.993896
2019-03-10T16:14:42.001Z,99.993896
2019-03-10T16:20:14.082Z,99.993896
2019-03-10T16:25:49.660Z,99.993896
2019-03-10T16:31:12.901Z,99.993896
2019-03-10T16:36:47.091Z,99.993896
2019-03-10T16:42:13.740Z,99.993896
2019-03-10T16:47:34.802Z,99.993896
2019-03-10T16:52:57.979Z,99.993896
2019-03-10T16:58:20.655Z,99.993896
2019-03-10T17:03:51.521Z,99.993896
2019-03-10T17:09:23.778Z,99.993896
2019-03-10T17:21:22.157Z,99.993896
2019-03-10T17:26:56.494Z,99.993896
2019-03-10T17:32:48.597Z,99.993896
2019-03-10T17:38:11.478Z,99.993896
2019-03-10T17:43:34.237Z,99.993896
2019-03-10T17:49:07.795Z,99.993896
2019-03-10T17:54:39.425Z,99.993896
2019-03-10T18:00:05.889Z,99.993896
2019-03-10T18:05:45.588Z,99.993896
2019-03-10T18:12:21.562Z,99.993896
2019-03-10T18:17:47.064Z,99.993896
2019-03-10T18:23:09.955Z,99.993896
2019-03-10T18:28:41.785Z,99.993896
2019-03-10T18:34:04.690Z,99.993896
2019-03-10T18:39:39.090Z,99.993896
2019-03-10T18:45:12.519Z,99.993896
2019-03-10T18:50:44.946Z,99.993896
2019-03-10T18:56:07.971Z,99.993896
2019-03-10T19:01:43.225Z,99.993896
2019-03-10T19:07:06.171Z,99.993896
2019-03-10T19:12:28.832Z,99.993896
2019-03-10T19:18:06.549Z,99.993896
2019-03-10T19:23:34.601Z,99.993896
2019-03-10T19:29:06.412Z,99.993896
2019-03-10T19:34:38.294Z,99.993896
2019-03-10T19:40:35.867Z,99.993896
2019-03-10T19:46:01.369Z,99.993896
2019-03-10T19:51:34.305Z,99.993896
2019-03-10T19:56:57.293Z,99.993896
2019-03-10T20:02:21.283Z,99.993896
2019-03-10T20:07:54.280Z,99.993896
2019-03-10T20:13:17.391Z,99.993896
2019-03-10T20:19:18.725Z,99.993896
2019-03-10T20:24:41.986Z,99.993896
2019-03-10T20:30:41.225Z,99.993896
2019-03-10T20:36:14.358Z,99.993896
2019-03-10T20:41:48.323Z,99.993896
2019-03-10T20:47:39.553Z,99.993896
2019-03-10T20:53:14.294Z,99.993896
2019-03-10T20:58:46.832Z,99.993896
2019-03-10T21:04:22.832Z,99.993896
2019-03-10T21:09:44.148Z,99.993896
2019-03-10T21:21:39.871Z,99.993896
2019-03-10T21:27:02.657Z,99.993896
2019-03-10T21:32:34.179Z,99.993896
2019-03-10T21:38:11.917Z,99.993896
2019-03-10T21:43:45.902Z,99.993896
2019-03-10T21:49:22.105Z,99.993896
2019-03-10T21:54:54.360Z,99.993896
2019-03-10T22:00:28.398Z,99.993896
2019-03-10T22:05:51.504Z,99.993896
2019-03-10T22:11:14.084Z,99.993896
2019-03-10T22:16:36.862Z,99.993896
2019-03-10T22:21:59.846Z,99.993896
2019-03-10T22:27:23.482Z,99.993896
2019-03-10T22:32:55.786Z,99.993896
2019-03-10T22:38:18.619Z,99.993896
2019-03-10T22:43:52.762Z,99.993896
2019-03-10T22:49:24.866Z,99.993896
2019-03-10T22:55:15.158Z,99.993896
2019-03-10T23:00:38.155Z,99.993896
2019-03-10T23:06:00.960Z,99.993896
2019-03-10T23:11:23.787Z,99.993896
2019-03-10T23:16:47.396Z,99.993896
2019-03-10T23:22:10.105Z,99.993896
2019-03-10T23:27:32.827Z,99.993896
2019-03-10T23:32:55.541Z,99.993896
2019-03-10T23:38:18.236Z,99.993896
2019-03-10T23:43:41.032Z,99.993896
2019-03-10T23:49:04.609Z,99.993896
2019-03-10T23:54:27.992Z,99.993896
2019-03-10T23:59:50.846Z,99.993896
